sensor_id;sensor_type;location;lat;lon;timestamp;pressure;altitude;pressure_sealevel;temperature;humidity
66560;BME280;53413;49.878;8.142;2023-06-14T00:01:01;99604.34;;;13.78;71.84
66560;BME280;53413;49.878;8.142;2023-06-14T00:03:28;99613.41;;;13.88;71.09
66560;BME280;53413;49.878;8.142;2023-06-14T00:05:53;99610.50;;;13.93;70.93
66560;BME280;53413;49.878;8.142;2023-06-14T00:08:19;99599.41;;;14.02;70.36
66560;BME280;53413;49.878;8.142;2023-06-14T00:10:46;99600.59;;;14.12;69.66
66560;BME280;53413;49.878;8.142;2023-06-14T00:13:12;99602.75;;;14.20;69.51
66560;BME280;53413;49.878;8.142;2023-06-14T00:15:37;99610.41;;;14.25;69.04
66560;BME280;53413;49.878;8.142;2023-06-14T00:18:04;99609.91;;;14.32;69.02
66560;BME280;53413;49.878;8.142;2023-06-14T00:20:31;99603.53;;;14.37;68.77
66560;BME280;53413;49.878;8.142;2023-06-14T00:22:58;99605.13;;;14.39;68.69
66560;BME280;53413;49.878;8.142;2023-06-14T00:25:24;99605.41;;;14.35;68.63
66560;BME280;53413;49.878;8.142;2023-06-14T00:27:53;99602.88;;;14.33;68.69
66560;BME280;53413;49.878;8.142;2023-06-14T00:30:19;99600.41;;;14.30;68.63
66560;BME280;53413;49.878;8.142;2023-06-14T00:32:45;99600.59;;;14.27;70.08
66560;BME280;53413;49.878;8.142;2023-06-14T00:35:11;99597.13;;;14.26;68.81
66560;BME280;53413;49.878;8.142;2023-06-14T00:37:36;99607.00;;;14.23;68.93
66560;BME280;53413;49.878;8.142;2023-06-14T00:40:02;99594.84;;;14.20;68.61
66560;BME280;53413;49.878;8.142;2023-06-14T00:42:29;99598.63;;;14.16;69.75
66560;BME280;53413;49.878;8.142;2023-06-14T00:44:55;99605.00;;;14.12;69.48
66560;BME280;53413;49.878;8.142;2023-06-14T00:47:20;99603.31;;;14.11;70.17
66560;BME280;53413;49.878;8.142;2023-06-14T00:49:46;99601.97;;;14.04;70.34
66560;BME280;53413;49.878;8.142;2023-06-14T00:52:13;99604.03;;;13.98;71.33
66560;BME280;53413;49.878;8.142;2023-06-14T00:54:40;99609.66;;;13.92;70.98
66560;BME280;53413;49.878;8.142;2023-06-14T00:57:06;99607.09;;;13.91;69.84
66560;BME280;53413;49.878;8.142;2023-06-14T00:59:32;99612.38;;;13.91;70.08
66560;BME280;53413;49.878;8.142;2023-06-14T01:01:58;99609.13;;;14.01;69.35
66560;BME280;53413;49.878;8.142;2023-06-14T01:04:23;99617.22;;;14.13;68.87
66560;BME280;53413;49.878;8.142;2023-06-14T01:09:27;99619.13;;;14.25;68.46
66560;BME280;53413;49.878;8.142;2023-06-14T01:12:18;99615.38;;;14.15;69.21
66560;BME280;53413;49.878;8.142;2023-06-14T01:14:47;99617.69;;;14.05;69.61
66560;BME280;53413;49.878;8.142;2023-06-14T01:17:16;99623.59;;;13.94;70.16
66560;BME280;53413;49.878;8.142;2023-06-14T01:19:43;99627.78;;;13.82;71.48
66560;BME280;53413;49.878;8.142;2023-06-14T01:22:09;99625.69;;;13.73;71.51
66560;BME280;53413;49.878;8.142;2023-06-14T01:24:35;99626.22;;;13.64;72.37
66560;BME280;53413;49.878;8.142;2023-06-14T01:27:01;99630.06;;;13.58;73.37
66560;BME280;53413;49.878;8.142;2023-06-14T01:29:28;99629.34;;;13.54;72.27
66560;BME280;53413;49.878;8.142;2023-06-14T01:31:58;99626.06;;;13.51;72.48
66560;BME280;53413;49.878;8.142;2023-06-14T01:34:24;99631.59;;;13.46;72.67
66560;BME280;53413;49.878;8.142;2023-06-14T01:36:49;99627.53;;;13.41;73.41
66560;BME280;53413;49.878;8.142;2023-06-14T01:39:16;99629.63;;;13.34;73.77
66560;BME280;53413;49.878;8.142;2023-06-14T01:41:43;99628.78;;;13.33;73.78
66560;BME280;53413;49.878;8.142;2023-06-14T01:44:12;99623.25;;;13.38;73.39
66560;BME280;53413;49.878;8.142;2023-06-14T01:46:38;99624.19;;;13.37;72.99
66560;BME280;53413;49.878;8.142;2023-06-14T01:49:05;99624.88;;;13.41;72.27
66560;BME280;53413;49.878;8.142;2023-06-14T01:51:31;99628.78;;;13.49;71.07
66560;BME280;53413;49.878;8.142;2023-06-14T01:53:56;99622.16;;;13.58;72.08
66560;BME280;53413;49.878;8.142;2023-06-14T01:56:22;99630.72;;;13.62;71.33
66560;BME280;53413;49.878;8.142;2023-06-14T01:58:48;99634.69;;;13.69;70.63
66560;BME280;53413;49.878;8.142;2023-06-14T02:01:15;99634.84;;;13.66;72.64
66560;BME280;53413;49.878;8.142;2023-06-14T02:03:41;99628.44;;;13.55;71.61
66560;BME280;53413;49.878;8.142;2023-06-14T02:06:07;99630.56;;;13.49;71.45
66560;BME280;53413;49.878;8.142;2023-06-14T02:08:32;99627.25;;;13.45;73.46
66560;BME280;53413;49.878;8.142;2023-06-14T02:10:58;99620.78;;;13.35;72.47
66560;BME280;53413;49.878;8.142;2023-06-14T02:13:23;99630.47;;;13.34;72.57
66560;BME280;53413;49.878;8.142;2023-06-14T02:15:48;99632.41;;;13.31;72.86
66560;BME280;53413;49.878;8.142;2023-06-14T02:18:18;99640.22;;;13.32;71.58
66560;BME280;53413;49.878;8.142;2023-06-14T02:20:43;99638.28;;;13.36;71.83
66560;BME280;53413;49.878;8.142;2023-06-14T02:23:08;99634.56;;;13.40;71.09
66560;BME280;53413;49.878;8.142;2023-06-14T02:25:34;99634.72;;;13.37;71.51
66560;BME280;53413;49.878;8.142;2023-06-14T02:28:00;99638.44;;;13.33;71.84
66560;BME280;53413;49.878;8.142;2023-06-14T02:30:25;99628.69;;;13.35;71.52
66560;BME280;53413;49.878;8.142;2023-06-14T02:32:51;99639.75;;;13.42;71.53
66560;BME280;53413;49.878;8.142;2023-06-14T02:35:16;99635.47;;;13.39;72.07
66560;BME280;53413;49.878;8.142;2023-06-14T02:37:41;99635.75;;;13.34;73.80
66560;BME280;53413;49.878;8.142;2023-06-14T02:40:08;99638.97;;;13.23;75.24
66560;BME280;53413;49.878;8.142;2023-06-14T02:42:34;99636.22;;;13.09;75.61
66560;BME280;53413;49.878;8.142;2023-06-14T02:44:59;99635.03;;;12.99;77.02
66560;BME280;53413;49.878;8.142;2023-06-14T02:47:25;99632.16;;;12.87;77.72
66560;BME280;53413;49.878;8.142;2023-06-14T02:49:51;99632.66;;;12.78;78.87
66560;BME280;53413;49.878;8.142;2023-06-14T02:52:16;99638.22;;;12.72;78.73
66560;BME280;53413;49.878;8.142;2023-06-14T02:54:41;99637.53;;;12.68;79.73
66560;BME280;53413;49.878;8.142;2023-06-14T02:57:07;99635.31;;;12.60;81.48
66560;BME280;53413;49.878;8.142;2023-06-14T02:59:33;99627.91;;;12.51;82.09
66560;BME280;53413;49.878;8.142;2023-06-14T03:01:59;99639.75;;;12.42;84.35
66560;BME280;53413;49.878;8.142;2023-06-14T03:04:24;99641.06;;;12.34;84.51
66560;BME280;53413;49.878;8.142;2023-06-14T03:06:51;99649.19;;;12.29;84.06
66560;BME280;53413;49.878;8.142;2023-06-14T03:09:16;99644.03;;;12.27;85.68
66560;BME280;53413;49.878;8.142;2023-06-14T03:11:42;99645.88;;;12.25;87.56
66560;BME280;53413;49.878;8.142;2023-06-14T03:14:07;99652.06;;;12.24;86.49
66560;BME280;53413;49.878;8.142;2023-06-14T03:16:33;99648.81;;;12.19;88.08
66560;BME280;53413;49.878;8.142;2023-06-14T03:18:59;99655.06;;;12.16;89.17
66560;BME280;53413;49.878;8.142;2023-06-14T03:21:24;99663.19;;;12.12;90.34
66560;BME280;53413;49.878;8.142;2023-06-14T03:23:51;99657.38;;;12.05;90.25
66560;BME280;53413;49.878;8.142;2023-06-14T03:26:18;99669.81;;;12.01;91.27
66560;BME280;53413;49.878;8.142;2023-06-14T03:28:47;99672.59;;;11.98;91.95
66560;BME280;53413;49.878;8.142;2023-06-14T03:31:13;99671.88;;;11.95;91.08
66560;BME280;53413;49.878;8.142;2023-06-14T03:33:39;99671.97;;;11.93;91.64
66560;BME280;53413;49.878;8.142;2023-06-14T03:36:05;99671.97;;;11.93;92.08
66560;BME280;53413;49.878;8.142;2023-06-14T03:38:32;99670.16;;;11.94;92.86
66560;BME280;53413;49.878;8.142;2023-06-14T03:40:57;99678.00;;;11.95;94.52
66560;BME280;53413;49.878;8.142;2023-06-14T03:43:23;99679.53;;;11.99;94.27
66560;BME280;53413;49.878;8.142;2023-06-14T03:45:48;99680.19;;;12.05;94.53
66560;BME280;53413;49.878;8.142;2023-06-14T03:48:13;99690.53;;;12.08;96.43
66560;BME280;53413;49.878;8.142;2023-06-14T03:50:39;99684.97;;;12.14;94.46
66560;BME280;53413;49.878;8.142;2023-06-14T03:53:04;99693.31;;;12.22;91.94
66560;BME280;53413;49.878;8.142;2023-06-14T03:55:30;99688.53;;;12.30;92.51
66560;BME280;53413;49.878;8.142;2023-06-14T03:57:59;99691.72;;;12.37;91.15
66560;BME280;53413;49.878;8.142;2023-06-14T04:00:24;99695.72;;;12.44;91.74
66560;BME280;53413;49.878;8.142;2023-06-14T04:02:50;99690.22;;;12.49;93.96
66560;BME280;53413;49.878;8.142;2023-06-14T04:05:15;99698.72;;;12.54;92.12
66560;BME280;53413;49.878;8.142;2023-06-14T04:07:42;99699.41;;;12.58;93.71
66560;BME280;53413;49.878;8.142;2023-06-14T04:10:10;99693.81;;;12.64;94.01
66560;BME280;53413;49.878;8.142;2023-06-14T04:12:35;99704.88;;;12.71;94.12
66560;BME280;53413;49.878;8.142;2023-06-14T04:15:01;99704.56;;;12.77;92.87
66560;BME280;53413;49.878;8.142;2023-06-14T04:17:26;99703.25;;;12.86;92.96
66560;BME280;53413;49.878;8.142;2023-06-14T04:19:52;99712.34;;;12.96;90.59
66560;BME280;53413;49.878;8.142;2023-06-14T04:22:17;99713.63;;;13.05;91.42
66560;BME280;53413;49.878;8.142;2023-06-14T04:24:43;99716.59;;;13.15;88.84
66560;BME280;53413;49.878;8.142;2023-06-14T04:27:10;99711.44;;;13.29;85.78
66560;BME280;53413;49.878;8.142;2023-06-14T04:29:35;99715.91;;;13.45;86.14
66560;BME280;53413;49.878;8.142;2023-06-14T04:32:01;99708.94;;;13.60;87.22
66560;BME280;53413;49.878;8.142;2023-06-14T04:34:27;99713.34;;;13.75;86.08
66560;BME280;53413;49.878;8.142;2023-06-14T04:36:55;99723.00;;;13.91;87.22
66560;BME280;53413;49.878;8.142;2023-06-14T04:39:22;99718.94;;;14.01;86.31
66560;BME280;53413;49.878;8.142;2023-06-14T04:41:48;99715.50;;;14.15;85.16
66560;BME280;53413;49.878;8.142;2023-06-14T04:44:18;99717.31;;;14.29;83.66
66560;BME280;53413;49.878;8.142;2023-06-14T04:46:47;99727.91;;;14.43;85.57
66560;BME280;53413;49.878;8.142;2023-06-14T04:49:22;99718.34;;;14.57;85.88
66560;BME280;53413;49.878;8.142;2023-06-14T04:51:48;99719.31;;;14.70;86.32
66560;BME280;53413;49.878;8.142;2023-06-14T04:54:16;99727.25;;;14.85;83.73
66560;BME280;53413;49.878;8.142;2023-06-14T04:56:42;99734.22;;;15.00;80.68
66560;BME280;53413;49.878;8.142;2023-06-14T04:59:07;99729.53;;;15.20;78.89
66560;BME280;53413;49.878;8.142;2023-06-14T05:01:34;99728.25;;;15.40;78.36
66560;BME280;53413;49.878;8.142;2023-06-14T05:04:00;99725.09;;;15.62;75.16
66560;BME280;53413;49.878;8.142;2023-06-14T05:06:26;99728.25;;;15.82;74.51
66560;BME280;53413;49.878;8.142;2023-06-14T05:08:53;99730.25;;;16.06;73.80
66560;BME280;53413;49.878;8.142;2023-06-14T05:11:18;99728.13;;;16.25;72.50
66560;BME280;53413;49.878;8.142;2023-06-14T05:13:44;99728.56;;;16.45;71.26
66560;BME280;53413;49.878;8.142;2023-06-14T05:16:10;99727.34;;;16.64;70.32
66560;BME280;53413;49.878;8.142;2023-06-14T05:18:36;99728.50;;;16.85;69.54
66560;BME280;53413;49.878;8.142;2023-06-14T05:21:02;99733.19;;;17.07;68.51
66560;BME280;53413;49.878;8.142;2023-06-14T05:23:29;99733.47;;;17.29;68.61
66560;BME280;53413;49.878;8.142;2023-06-14T05:25:55;99726.53;;;17.52;66.49
66560;BME280;53413;49.878;8.142;2023-06-14T05:28:22;99734.63;;;17.75;64.58
66560;BME280;53413;49.878;8.142;2023-06-14T05:30:47;99738.28;;;17.98;63.73
66560;BME280;53413;49.878;8.142;2023-06-14T05:33:12;99741.28;;;18.29;61.92
66560;BME280;53413;49.878;8.142;2023-06-14T05:35:38;99737.50;;;20.25;57.46
66560;BME280;53413;49.878;8.142;2023-06-14T05:38:03;99732.56;;;25.12;46.10
66560;BME280;53413;49.878;8.142;2023-06-14T05:40:28;99733.22;;;28.40;38.31
66560;BME280;53413;49.878;8.142;2023-06-14T05:42:54;99731.28;;;30.77;34.39
66560;BME280;53413;49.878;8.142;2023-06-14T05:45:20;99730.13;;;31.90;31.33
66560;BME280;53413;49.878;8.142;2023-06-14T05:47:45;99744.09;;;32.95;30.15
66560;BME280;53413;49.878;8.142;2023-06-14T05:50:10;99748.59;;;33.35;28.38
66560;BME280;53413;49.878;8.142;2023-06-14T05:52:36;99757.13;;;33.38;28.23
66560;BME280;53413;49.878;8.142;2023-06-14T05:55:02;99756.75;;;34.44;27.33
66560;BME280;53413;49.878;8.142;2023-06-14T05:57:28;99755.03;;;35.80;25.47
66560;BME280;53413;49.878;8.142;2023-06-14T05:59:54;99756.03;;;36.88;25.15
66560;BME280;53413;49.878;8.142;2023-06-14T06:02:19;99752.97;;;36.72;24.66
66560;BME280;53413;49.878;8.142;2023-06-14T06:04:45;99756.94;;;37.29;23.86
66560;BME280;53413;49.878;8.142;2023-06-14T06:07:10;99759.13;;;37.15;24.02
66560;BME280;53413;49.878;8.142;2023-06-14T06:09:35;99750.91;;;38.48;22.79
66560;BME280;53413;49.878;8.142;2023-06-14T06:12:01;99753.19;;;38.90;22.67
66560;BME280;53413;49.878;8.142;2023-06-14T06:14:26;99760.66;;;39.17;21.90
66560;BME280;53413;49.878;8.142;2023-06-14T06:16:51;99766.38;;;39.60;21.79
66560;BME280;53413;49.878;8.142;2023-06-14T06:19:18;99757.53;;;39.08;22.34
66560;BME280;53413;49.878;8.142;2023-06-14T06:21:43;99759.44;;;39.52;21.12
66560;BME280;53413;49.878;8.142;2023-06-14T06:24:09;99762.25;;;39.13;21.93
66560;BME280;53413;49.878;8.142;2023-06-14T06:26:34;99769.06;;;40.10;21.22
66560;BME280;53413;49.878;8.142;2023-06-14T06:29:00;99777.19;;;40.27;20.80
66560;BME280;53413;49.878;8.142;2023-06-14T06:31:25;99760.91;;;39.87;20.38
66560;BME280;53413;49.878;8.142;2023-06-14T06:33:53;99784.47;;;40.43;20.27
66560;BME280;53413;49.878;8.142;2023-06-14T06:36:19;99772.13;;;39.81;20.63
66560;BME280;53413;49.878;8.142;2023-06-14T06:38:45;99772.53;;;39.95;20.79
66560;BME280;53413;49.878;8.142;2023-06-14T06:41:10;99778.41;;;39.32;20.81
66560;BME280;53413;49.878;8.142;2023-06-14T06:43:36;99778.94;;;39.11;20.64
66560;BME280;53413;49.878;8.142;2023-06-14T06:46:01;99784.75;;;39.15;21.40
66560;BME280;53413;49.878;8.142;2023-06-14T06:48:26;99780.41;;;38.80;21.06
66560;BME280;53413;49.878;8.142;2023-06-14T06:50:51;99782.91;;;38.30;21.70
66560;BME280;53413;49.878;8.142;2023-06-14T06:53:17;99787.53;;;37.84;22.16
66560;BME280;53413;49.878;8.142;2023-06-14T06:55:43;99797.88;;;38.40;21.64
66560;BME280;53413;49.878;8.142;2023-06-14T06:58:09;99780.69;;;39.18;21.41
66560;BME280;53413;49.878;8.142;2023-06-14T07:00:35;99795.28;;;39.95;20.63
66560;BME280;53413;49.878;8.142;2023-06-14T07:03:00;99799.94;;;40.55;20.20
66560;BME280;53413;49.878;8.142;2023-06-14T07:05:26;99795.50;;;40.86;19.68
66560;BME280;53413;49.878;8.142;2023-06-14T07:07:52;99801.59;;;40.61;20.04
66560;BME280;53413;49.878;8.142;2023-06-14T07:10:17;99804.81;;;39.87;20.53
66560;BME280;53413;49.878;8.142;2023-06-14T07:12:43;99805.84;;;39.81;20.79
66560;BME280;53413;49.878;8.142;2023-06-14T07:15:09;99808.03;;;40.39;20.22
66560;BME280;53413;49.878;8.142;2023-06-14T07:17:35;99809.56;;;40.25;20.36
66560;BME280;53413;49.878;8.142;2023-06-14T07:20:03;99816.03;;;41.95;19.83
66560;BME280;53413;49.878;8.142;2023-06-14T07:22:38;99803.69;;;42.50;19.00
66560;BME280;53413;49.878;8.142;2023-06-14T07:25:04;99814.94;;;41.96;19.04
66560;BME280;53413;49.878;8.142;2023-06-14T07:27:30;99826.47;;;40.76;20.00
66560;BME280;53413;49.878;8.142;2023-06-14T07:29:55;99819.19;;;39.72;20.23
66560;BME280;53413;49.878;8.142;2023-06-14T07:32:20;99810.31;;;40.47;20.02
66560;BME280;53413;49.878;8.142;2023-06-14T07:34:46;99814.78;;;40.97;19.55
66560;BME280;53413;49.878;8.142;2023-06-14T07:37:11;99814.34;;;41.89;18.87
66560;BME280;53413;49.878;8.142;2023-06-14T07:39:36;99820.75;;;42.21;18.71
66560;BME280;53413;49.878;8.142;2023-06-14T07:42:02;99812.69;;;43.12;18.60
66560;BME280;53413;49.878;8.142;2023-06-14T07:44:29;99827.59;;;43.72;17.34
66560;BME280;53413;49.878;8.142;2023-06-14T07:46:56;99823.13;;;43.81;17.81
66560;BME280;53413;49.878;8.142;2023-06-14T07:49:23;99825.50;;;44.38;17.32
66560;BME280;53413;49.878;8.142;2023-06-14T07:51:48;99823.34;;;44.64;17.66
66560;BME280;53413;49.878;8.142;2023-06-14T07:54:15;99821.34;;;44.99;17.19
66560;BME280;53413;49.878;8.142;2023-06-14T07:56:40;99821.38;;;44.94;17.20
66560;BME280;53413;49.878;8.142;2023-06-14T07:59:06;99829.56;;;44.51;17.11
66560;BME280;53413;49.878;8.142;2023-06-14T08:01:32;99827.72;;;44.01;17.48
66560;BME280;53413;49.878;8.142;2023-06-14T08:03:58;99818.63;;;44.65;16.98
66560;BME280;53413;49.878;8.142;2023-06-14T08:06:23;99822.53;;;45.80;16.45
66560;BME280;53413;49.878;8.142;2023-06-14T08:08:49;99820.38;;;46.48;16.14
66560;BME280;53413;49.878;8.142;2023-06-14T08:11:14;99821.63;;;45.46;16.71
66560;BME280;53413;49.878;8.142;2023-06-14T08:13:40;99821.47;;;44.89;16.85
66560;BME280;53413;49.878;8.142;2023-06-14T08:16:05;99812.31;;;45.61;16.24
66560;BME280;53413;49.878;8.142;2023-06-14T08:18:30;99805.00;;;46.23;16.14
66560;BME280;53413;49.878;8.142;2023-06-14T08:20:56;99815.13;;;46.47;16.36
66560;BME280;53413;49.878;8.142;2023-06-14T08:23:22;99816.34;;;45.88;16.51
66560;BME280;53413;49.878;8.142;2023-06-14T08:25:48;99820.47;;;45.28;16.18
66560;BME280;53413;49.878;8.142;2023-06-14T08:28:13;99815.44;;;45.06;16.48
66560;BME280;53413;49.878;8.142;2023-06-14T08:30:39;99812.53;;;46.03;16.32
66560;BME280;53413;49.878;8.142;2023-06-14T08:33:04;99811.56;;;46.27;15.97
66560;BME280;53413;49.878;8.142;2023-06-14T08:35:29;99817.75;;;46.71;15.91
66560;BME280;53413;49.878;8.142;2023-06-14T08:37:55;99817.75;;;46.71;15.91
66560;BME280;53413;49.878;8.142;2023-06-14T08:40:21;99831.59;;;45.18;16.41
66560;BME280;53413;49.878;8.142;2023-06-14T08:42:51;99818.03;;;44.43;16.55
66560;BME280;53413;49.878;8.142;2023-06-14T08:45:17;99825.47;;;44.08;16.81
66560;BME280;53413;49.878;8.142;2023-06-14T08:47:42;99814.88;;;43.05;17.25
66560;BME280;53413;49.878;8.142;2023-06-14T08:50:08;99826.59;;;43.52;16.73
66560;BME280;53413;49.878;8.142;2023-06-14T08:52:38;99821.09;;;44.37;17.18
66560;BME280;53413;49.878;8.142;2023-06-14T08:55:11;99823.31;;;45.18;16.50
66560;BME280;53413;49.878;8.142;2023-06-14T08:57:37;99830.31;;;45.97;16.09
66560;BME280;53413;49.878;8.142;2023-06-14T09:00:03;99825.56;;;45.40;15.65
66560;BME280;53413;49.878;8.142;2023-06-14T09:02:37;99819.81;;;44.58;16.32
66560;BME280;53413;49.878;8.142;2023-06-14T09:05:03;99821.47;;;44.59;16.43
66560;BME280;53413;49.878;8.142;2023-06-14T09:07:28;99817.91;;;44.19;16.45
66560;BME280;53413;49.878;8.142;2023-06-14T09:10:14;99823.09;;;45.39;16.08
66560;BME280;53413;49.878;8.142;2023-06-14T09:12:40;99827.97;;;45.47;16.30
66560;BME280;53413;49.878;8.142;2023-06-14T09:15:06;99827.09;;;45.71;16.39
66560;BME280;53413;49.878;8.142;2023-06-14T09:17:33;99822.06;;;44.51;16.62
66560;BME280;53413;49.878;8.142;2023-06-14T09:20:00;99821.44;;;44.30;16.41
66560;BME280;53413;49.878;8.142;2023-06-14T09:22:28;99830.53;;;44.31;16.90
66560;BME280;53413;49.878;8.142;2023-06-14T09:24:54;99823.66;;;43.83;16.59
66560;BME280;53413;49.878;8.142;2023-06-14T09:27:19;99830.06;;;43.73;17.28
66560;BME280;53413;49.878;8.142;2023-06-14T09:29:45;99838.34;;;45.12;16.84
66560;BME280;53413;49.878;8.142;2023-06-14T09:32:10;99832.63;;;45.71;16.38
66560;BME280;53413;49.878;8.142;2023-06-14T09:34:35;99825.53;;;45.84;16.34
66560;BME280;53413;49.878;8.142;2023-06-14T09:37:01;99849.91;;;44.89;16.56
66560;BME280;53413;49.878;8.142;2023-06-14T09:39:26;99840.94;;;43.49;17.13
66560;BME280;53413;49.878;8.142;2023-06-14T09:41:52;99837.56;;;42.86;17.80
66560;BME280;53413;49.878;8.142;2023-06-14T09:44:17;99841.25;;;43.47;16.55
66560;BME280;53413;49.878;8.142;2023-06-14T09:46:44;99843.69;;;43.49;17.49
66560;BME280;53413;49.878;8.142;2023-06-14T09:49:09;99839.50;;;42.50;17.97
66560;BME280;53413;49.878;8.142;2023-06-14T09:51:36;99821.78;;;41.89;18.13
66560;BME280;53413;49.878;8.142;2023-06-14T09:54:08;99832.59;;;42.42;17.82
66560;BME280;53413;49.878;8.142;2023-06-14T09:56:38;99829.84;;;42.78;18.11
66560;BME280;53413;49.878;8.142;2023-06-14T09:59:06;99838.94;;;42.68;17.61
66560;BME280;53413;49.878;8.142;2023-06-14T10:01:34;99842.50;;;42.33;17.91
66560;BME280;53413;49.878;8.142;2023-06-14T10:04:04;99833.13;;;42.08;17.91
66560;BME280;53413;49.878;8.142;2023-06-14T10:06:31;99837.19;;;41.21;17.92
66560;BME280;53413;49.878;8.142;2023-06-14T10:08:59;99832.75;;;40.39;17.95
66560;BME280;53413;49.878;8.142;2023-06-14T10:11:25;99827.09;;;40.19;18.74
66560;BME280;53413;49.878;8.142;2023-06-14T10:13:51;99834.41;;;40.73;18.73
66560;BME280;53413;49.878;8.142;2023-06-14T10:16:42;99834.72;;;39.22;19.53
66560;BME280;53413;49.878;8.142;2023-06-14T10:21:37;99832.28;;;34.10;22.94
66560;BME280;53413;49.878;8.142;2023-06-14T10:24:08;99840.28;;;31.35;25.44
66560;BME280;53413;49.878;8.142;2023-06-14T10:26:50;99842.78;;;28.71;28.72
66560;BME280;53413;49.878;8.142;2023-06-14T10:29:15;99847.44;;;27.68;29.83
66560;BME280;53413;49.878;8.142;2023-06-14T10:31:48;99847.22;;;27.21;31.16
66560;BME280;53413;49.878;8.142;2023-06-14T10:34:30;99853.97;;;26.92;32.42
66560;BME280;53413;49.878;8.142;2023-06-14T10:37:06;99844.56;;;26.63;32.10
66560;BME280;53413;49.878;8.142;2023-06-14T10:39:38;99849.38;;;26.18;32.57
66560;BME280;53413;49.878;8.142;2023-06-14T10:42:04;99845.22;;;25.81;33.62
66560;BME280;53413;49.878;8.142;2023-06-14T10:47:07;99846.09;;;25.55;34.54
66560;BME280;53413;49.878;8.142;2023-06-14T10:49:44;99846.09;;;25.29;34.51
66560;BME280;53413;49.878;8.142;2023-06-14T10:52:16;99841.75;;;25.28;35.04
66560;BME280;53413;49.878;8.142;2023-06-14T10:57:35;99858.66;;;25.28;34.41
66560;BME280;53413;49.878;8.142;2023-06-14T11:00:02;99850.25;;;25.23;33.48
66560;BME280;53413;49.878;8.142;2023-06-14T11:05:08;99850.22;;;25.41;34.50
66560;BME280;53413;49.878;8.142;2023-06-14T11:07:40;99850.13;;;25.33;33.89
66560;BME280;53413;49.878;8.142;2023-06-14T11:12:47;99846.09;;;25.55;33.89
66560;BME280;53413;49.878;8.142;2023-06-14T11:15:13;99855.66;;;25.58;33.06
66560;BME280;53413;49.878;8.142;2023-06-14T11:17:39;99860.91;;;25.67;34.14
66560;BME280;53413;49.878;8.142;2023-06-14T11:20:11;99859.44;;;25.73;33.40
66560;BME280;53413;49.878;8.142;2023-06-14T11:22:41;99846.41;;;25.95;33.97
66560;BME280;53413;49.878;8.142;2023-06-14T11:25:12;99851.47;;;25.98;33.60
66560;BME280;53413;49.878;8.142;2023-06-14T11:27:38;99858.97;;;25.86;33.99
66560;BME280;53413;49.878;8.142;2023-06-14T11:30:07;99844.81;;;25.67;33.44
66560;BME280;53413;49.878;8.142;2023-06-14T11:32:32;99849.22;;;25.77;34.11
66560;BME280;53413;49.878;8.142;2023-06-14T11:34:58;99846.03;;;25.81;33.92
66560;BME280;53413;49.878;8.142;2023-06-14T11:37:25;99845.84;;;25.75;33.28
66560;BME280;53413;49.878;8.142;2023-06-14T11:39:59;99846.38;;;25.78;32.98
66560;BME280;53413;49.878;8.142;2023-06-14T11:42:26;99847.53;;;25.76;32.42
66560;BME280;53413;49.878;8.142;2023-06-14T11:44:53;99838.53;;;25.93;32.46
66560;BME280;53413;49.878;8.142;2023-06-14T11:47:18;99843.19;;;26.26;31.85
66560;BME280;53413;49.878;8.142;2023-06-14T11:49:44;99837.00;;;26.42;32.62
66560;BME280;53413;49.878;8.142;2023-06-14T11:52:09;99834.81;;;26.37;33.27
66560;BME280;53413;49.878;8.142;2023-06-14T11:54:36;99835.97;;;26.35;32.93
66560;BME280;53413;49.878;8.142;2023-06-14T11:57:03;99830.28;;;26.46;33.86
66560;BME280;53413;49.878;8.142;2023-06-14T11:59:29;99823.06;;;26.55;33.64
66560;BME280;53413;49.878;8.142;2023-06-14T12:01:56;99834.47;;;26.57;34.03
66560;BME280;53413;49.878;8.142;2023-06-14T12:04:26;99835.47;;;26.23;34.31
66560;BME280;53413;49.878;8.142;2023-06-14T12:06:52;99839.84;;;25.89;34.65
66560;BME280;53413;49.878;8.142;2023-06-14T12:09:19;99836.03;;;25.92;34.47
66560;BME280;53413;49.878;8.142;2023-06-14T12:11:45;99826.94;;;25.93;34.45
66560;BME280;53413;49.878;8.142;2023-06-14T12:14:16;99830.16;;;25.96;33.97
66560;BME280;53413;49.878;8.142;2023-06-14T12:16:42;99834.09;;;26.10;33.64
66560;BME280;53413;49.878;8.142;2023-06-14T12:19:17;99821.69;;;26.42;33.29
66560;BME280;53413;49.878;8.142;2023-06-14T12:21:46;99827.38;;;27.14;33.06
66560;BME280;53413;49.878;8.142;2023-06-14T12:24:13;99818.78;;;27.83;31.63
66560;BME280;53413;49.878;8.142;2023-06-14T12:26:39;99815.16;;;28.31;30.44
66560;BME280;53413;49.878;8.142;2023-06-14T12:29:06;99828.66;;;27.91;32.51
66560;BME280;53413;49.878;8.142;2023-06-14T12:31:35;99826.41;;;27.07;33.03
66560;BME280;53413;49.878;8.142;2023-06-14T12:34:00;99816.16;;;27.02;33.32
66560;BME280;53413;49.878;8.142;2023-06-14T12:36:26;99823.56;;;27.00;33.26
66560;BME280;53413;49.878;8.142;2023-06-14T12:38:52;99814.50;;;26.84;33.50
66560;BME280;53413;49.878;8.142;2023-06-14T12:41:21;99819.00;;;27.00;32.87
66560;BME280;53413;49.878;8.142;2023-06-14T12:43:47;99816.16;;;27.67;32.45
66560;BME280;53413;49.878;8.142;2023-06-14T12:46:12;99808.69;;;28.40;32.22
66560;BME280;53413;49.878;8.142;2023-06-14T12:48:38;99814.59;;;28.97;31.28
66560;BME280;53413;49.878;8.142;2023-06-14T12:51:03;99813.22;;;28.63;31.47
66560;BME280;53413;49.878;8.142;2023-06-14T12:53:29;99816.66;;;28.56;32.26
66560;BME280;53413;49.878;8.142;2023-06-14T12:55:57;99823.28;;;28.22;32.22
66560;BME280;53413;49.878;8.142;2023-06-14T12:58:22;99824.41;;;27.96;32.38
66560;BME280;53413;49.878;8.142;2023-06-14T13:00:49;99828.91;;;27.73;31.99
66560;BME280;53413;49.878;8.142;2023-06-14T13:03:15;99831.34;;;27.59;32.67
66560;BME280;53413;49.878;8.142;2023-06-14T13:05:40;99820.25;;;27.54;32.74
66560;BME280;53413;49.878;8.142;2023-06-14T13:08:07;99830.38;;;27.84;33.24
66560;BME280;53413;49.878;8.142;2023-06-14T13:10:36;99828.00;;;27.89;32.73
66560;BME280;53413;49.878;8.142;2023-06-14T13:13:01;99827.06;;;28.05;32.84